sensor_id;sensor_type;location;lat;lon;timestamp;pressure;altitude;pressure_sealevel;temperature;humidity
68822;BME280;55834;50.870;4.606;2022-11-20T00:00:05;100598.44;;;2.46;59.60
68822;BME280;55834;50.870;4.606;2022-11-20T00:02:31;100596.75;;;2.56;60.23
68822;BME280;55834;50.870;4.606;2022-11-20T00:04:56;100593.31;;;2.68;59.23
68822;BME280;55834;50.870;4.606;2022-11-20T00:07:22;100594.16;;;2.64;58.77
68822;BME280;55834;50.870;4.606;2022-11-20T00:09:48;100597.53;;;2.31;58.87
68822;BME280;55834;50.870;4.606;2022-11-20T00:12:13;100592.25;;;2.04;58.99
68822;BME280;55834;50.870;4.606;2022-11-20T00:14:38;100595.56;;;1.79;60.96
68822;BME280;55834;50.870;4.606;2022-11-20T00:17:04;100595.00;;;2.47;62.23
68822;BME280;55834;50.870;4.606;2022-11-20T00:19:29;100587.22;;;2.69;58.47
68822;BME280;55834;50.870;4.606;2022-11-20T00:21:54;100599.09;;;1.89;59.86
68822;BME280;55834;50.870;4.606;2022-11-20T00:24:20;100593.94;;;1.98;62.03
68822;BME280;55834;50.870;4.606;2022-11-20T00:26:46;100591.53;;;2.53;62.34
68822;BME280;55834;50.870;4.606;2022-11-20T00:29:11;100590.72;;;2.85;60.22
68822;BME280;55834;50.870;4.606;2022-11-20T00:31:36;100601.13;;;2.77;57.82
68822;BME280;55834;50.870;4.606;2022-11-20T00:34:02;100601.13;;;2.89;59.48
68822;BME280;55834;50.870;4.606;2022-11-20T00:36:28;100594.19;;;2.87;57.85
68822;BME280;55834;50.870;4.606;2022-11-20T00:38:57;100595.94;;;3.11;56.93
68822;BME280;55834;50.870;4.606;2022-11-20T00:41:24;100592.50;;;3.24;58.46
68822;BME280;55834;50.870;4.606;2022-11-20T00:43:51;100598.56;;;3.17;57.28
68822;BME280;55834;50.870;4.606;2022-11-20T00:46:19;100591.56;;;2.81;57.57
68822;BME280;55834;50.870;4.606;2022-11-20T00:48:45;100595.03;;;2.64;58.64
68822;BME280;55834;50.870;4.606;2022-11-20T00:51:13;100585.50;;;3.06;58.71
68822;BME280;55834;50.870;4.606;2022-11-20T00:53:38;100583.75;;;2.67;59.06
68822;BME280;55834;50.870;4.606;2022-11-20T00:56:06;100592.44;;;2.83;58.18
68822;BME280;55834;50.870;4.606;2022-11-20T00:58:34;100598.53;;;2.76;59.39
68822;BME280;55834;50.870;4.606;2022-11-20T01:01:02;100591.59;;;3.08;59.51
68822;BME280;55834;50.870;4.606;2022-11-20T01:03:31;100598.56;;;3.03;59.33
68822;BME280;55834;50.870;4.606;2022-11-20T01:06:00;100592.47;;;3.00;57.63
68822;BME280;55834;50.870;4.606;2022-11-20T01:08:29;100600.06;;;2.08;59.96
68822;BME280;55834;50.870;4.606;2022-11-20T01:10:59;100594.00;;;2.13;60.30
68822;BME280;55834;50.870;4.606;2022-11-20T01:13:25;100592.44;;;2.72;61.18
68822;BME280;55834;50.870;4.606;2022-11-20T01:16:13;100583.78;;;2.93;59.96
68822;BME280;55834;50.870;4.606;2022-11-20T01:18:40;100585.50;;;3.14;59.34
68822;BME280;55834;50.870;4.606;2022-11-20T01:21:09;100581.19;;;3.30;59.65
68822;BME280;55834;50.870;4.606;2022-11-20T01:23:37;100589.00;;;2.99;58.23
68822;BME280;55834;50.870;4.606;2022-11-20T01:26:05;100592.50;;;3.20;59.39
68822;BME280;55834;50.870;4.606;2022-11-20T01:28:31;100591.63;;;3.40;59.15
68822;BME280;55834;50.870;4.606;2022-11-20T01:30:57;100594.22;;;3.45;57.79
68822;BME280;55834;50.870;4.606;2022-11-20T01:33:23;100590.72;;;3.57;58.39
68822;BME280;55834;50.870;4.606;2022-11-20T01:35:48;100582.91;;;3.57;57.30
68822;BME280;55834;50.870;4.606;2022-11-20T01:38:15;100588.97;;;3.60;58.04
68822;BME280;55834;50.870;4.606;2022-11-20T01:40:40;100585.50;;;3.45;56.08
68822;BME280;55834;50.870;4.606;2022-11-20T01:43:14;100586.41;;;3.28;57.74
68822;BME280;55834;50.870;4.606;2022-11-20T01:48:44;100595.03;;;3.67;58.09
68822;BME280;55834;50.870;4.606;2022-11-20T01:51:28;100592.44;;;3.53;57.11
68822;BME280;55834;50.870;4.606;2022-11-20T01:53:56;100589.88;;;3.43;57.95
68822;BME280;55834;50.870;4.606;2022-11-20T01:56:23;100584.63;;;3.47;58.13
68822;BME280;55834;50.870;4.606;2022-11-20T01:58:52;100586.41;;;3.28;57.56
68822;BME280;55834;50.870;4.606;2022-11-20T02:01:20;100594.25;;;3.19;59.28
68822;BME280;55834;50.870;4.606;2022-11-20T02:03:46;100587.28;;;3.39;59.89
68822;BME280;55834;50.870;4.606;2022-11-20T02:06:18;100591.56;;;3.62;59.21
68822;BME280;55834;50.870;4.606;2022-11-20T02:08:45;100582.91;;;3.46;58.10
68822;BME280;55834;50.870;4.606;2022-11-20T02:11:11;100578.53;;;3.57;58.59
68822;BME280;55834;50.870;4.606;2022-11-20T02:13:38;100583.72;;;3.67;58.12
68822;BME280;55834;50.870;4.606;2022-11-20T02:16:16;100588.06;;;3.80;57.76
68822;BME280;55834;50.870;4.606;2022-11-20T02:18:44;100584.59;;;3.78;57.22
68822;BME280;55834;50.870;4.606;2022-11-20T02:21:21;100585.50;;;3.52;56.99
68822;BME280;55834;50.870;4.606;2022-11-20T02:24:03;100573.34;;;3.36;58.06
68822;BME280;55834;50.870;4.606;2022-11-20T02:26:31;100582.00;;;3.56;58.67
68822;BME280;55834;50.870;4.606;2022-11-20T02:28:59;100582.03;;;3.55;57.44
68822;BME280;55834;50.870;4.606;2022-11-20T02:31:25;100576.81;;;3.46;57.65
68822;BME280;55834;50.870;4.606;2022-11-20T02:33:56;100578.50;;;2.50;60.67
68822;BME280;55834;50.870;4.606;2022-11-20T02:36:22;100579.41;;;2.89;62.04
68822;BME280;55834;50.870;4.606;2022-11-20T02:38:49;100578.56;;;3.24;61.31
68822;BME280;55834;50.870;4.606;2022-11-20T02:41:14;100573.34;;;3.36;60.27
68822;BME280;55834;50.870;4.606;2022-11-20T02:43:40;100574.22;;;3.49;60.18
68822;BME280;55834;50.870;4.606;2022-11-20T02:46:07;100568.06;;;3.70;59.89
68822;BME280;55834;50.870;4.606;2022-11-20T02:48:32;100573.25;;;3.79;58.66
68822;BME280;55834;50.870;4.606;2022-11-20T02:50:57;100567.22;;;3.66;59.44
68822;BME280;55834;50.870;4.606;2022-11-20T02:53:23;100568.09;;;3.63;58.58
68822;BME280;55834;50.870;4.606;2022-11-20T02:55:48;100565.47;;;3.63;59.49
68822;BME280;55834;50.870;4.606;2022-11-20T02:58:13;100565.47;;;3.68;58.35
68822;BME280;55834;50.870;4.606;2022-11-20T03:00:39;100561.16;;;3.44;59.53
68822;BME280;55834;50.870;4.606;2022-11-20T03:03:04;100552.47;;;3.36;59.35
68822;BME280;55834;50.870;4.606;2022-11-20T03:05:29;100559.41;;;3.52;59.72
68822;BME280;55834;50.870;4.606;2022-11-20T03:07:55;100542.88;;;3.52;58.87
68822;BME280;55834;50.870;4.606;2022-11-20T03:10:20;100536.75;;;3.68;59.02
68822;BME280;55834;50.870;4.606;2022-11-20T03:12:45;100543.75;;;3.49;58.94
68822;BME280;55834;50.870;4.606;2022-11-20T03:15:11;100535.03;;;3.52;59.10
68822;BME280;55834;50.870;4.606;2022-11-20T03:17:36;100530.69;;;3.48;59.13
68822;BME280;55834;50.870;4.606;2022-11-20T03:20:02;100536.81;;;2.98;59.91
68822;BME280;55834;50.870;4.606;2022-11-20T03:22:31;100536.78;;;3.47;62.11
68822;BME280;55834;50.870;4.606;2022-11-20T03:24:56;100528.00;;;3.75;61.54
68822;BME280;55834;50.870;4.606;2022-11-20T03:27:22;100527.97;;;3.89;59.60
68822;BME280;55834;50.870;4.606;2022-11-20T03:29:47;100525.31;;;3.98;59.34
68822;BME280;55834;50.870;4.606;2022-11-20T03:32:12;100525.38;;;3.86;58.18
68822;BME280;55834;50.870;4.606;2022-11-20T03:34:38;100519.22;;;3.95;58.88
68822;BME280;55834;50.870;4.606;2022-11-20T03:37:03;100525.28;;;3.97;57.88
68822;BME280;55834;50.870;4.606;2022-11-20T03:39:28;100524.47;;;3.87;57.39
68822;BME280;55834;50.870;4.606;2022-11-20T03:41:53;100527.97;;;3.89;58.21
68822;BME280;55834;50.870;4.606;2022-11-20T03:44:20;100521.81;;;3.96;58.14
68822;BME280;55834;50.870;4.606;2022-11-20T03:46:46;100520.06;;;4.01;58.27
68822;BME280;55834;50.870;4.606;2022-11-20T03:49:12;100520.19;;;3.65;59.92
68822;BME280;55834;50.870;4.606;2022-11-20T03:51:37;100527.09;;;3.82;59.43
68822;BME280;55834;50.870;4.606;2022-11-20T03:54:06;100534.06;;;3.83;58.90
68822;BME280;55834;50.870;4.606;2022-11-20T03:56:36;100527.09;;;3.89;59.58
68822;BME280;55834;50.870;4.606;2022-11-20T03:59:02;100511.38;;;3.93;58.80
68822;BME280;55834;50.870;4.606;2022-11-20T04:01:34;100507.06;;;3.89;57.40
68822;BME280;55834;50.870;4.606;2022-11-20T04:04:00;100509.72;;;3.74;58.58
68822;BME280;55834;50.870;4.606;2022-11-20T04:06:36;100505.31;;;3.87;59.57
68822;BME280;55834;50.870;4.606;2022-11-20T04:09:03;100500.88;;;4.07;58.94
68822;BME280;55834;50.870;4.606;2022-11-20T04:11:31;100501.69;;;4.17;58.35
68822;BME280;55834;50.870;4.606;2022-11-20T04:14:02;100494.69;;;4.26;58.48
68822;BME280;55834;50.870;4.606;2022-11-20T04:16:33;100492.88;;;4.33;58.10
68822;BME280;55834;50.870;4.606;2022-11-20T04:19:03;100494.59;;;4.37;57.79
68822;BME280;55834;50.870;4.606;2022-11-20T04:21:29;100493.69;;;4.41;57.54
68822;BME280;55834;50.870;4.606;2022-11-20T04:23:54;100489.34;;;4.43;57.21
68822;BME280;55834;50.870;4.606;2022-11-20T04:26:21;100485.03;;;4.35;56.39
68822;BME280;55834;50.870;4.606;2022-11-20T04:28:47;100496.44;;;4.20;56.79
68822;BME280;55834;50.870;4.606;2022-11-20T04:31:14;100496.44;;;4.17;56.79
68822;BME280;55834;50.870;4.606;2022-11-20T04:33:40;100492.06;;;4.25;57.41
68822;BME280;55834;50.870;4.606;2022-11-20T04:36:11;100497.25;;;4.29;57.29
68822;BME280;55834;50.870;4.606;2022-11-20T04:38:36;100494.69;;;4.22;57.26
68822;BME280;55834;50.870;4.606;2022-11-20T04:41:05;100489.44;;;4.26;57.78
68822;BME280;55834;50.870;4.606;2022-11-20T04:43:31;100489.41;;;4.28;56.84
68822;BME280;55834;50.870;4.606;2022-11-20T04:45:57;100487.69;;;4.30;57.48
68822;BME280;55834;50.870;4.606;2022-11-20T04:48:24;100490.28;;;4.30;57.43
68822;BME280;55834;50.870;4.606;2022-11-20T04:50:50;100485.03;;;4.31;57.38
68822;BME280;55834;50.870;4.606;2022-11-20T04:53:16;100488.56;;;4.29;56.61
68822;BME280;55834;50.870;4.606;2022-11-20T04:55:41;100479.84;;;4.27;57.05
68822;BME280;55834;50.870;4.606;2022-11-20T04:58:06;100485.09;;;4.27;57.19
68822;BME280;55834;50.870;4.606;2022-11-20T05:00:32;100485.09;;;4.27;57.35
68822;BME280;55834;50.870;4.606;2022-11-20T05:02:57;100486.78;;;4.31;57.53
68822;BME280;55834;50.870;4.606;2022-11-20T05:05:23;100485.91;;;4.34;57.72
68822;BME280;55834;50.870;4.606;2022-11-20T05:07:48;100491.09;;;4.38;57.16
68822;BME280;55834;50.870;4.606;2022-11-20T05:10:14;100482.34;;;4.42;56.94
68822;BME280;55834;50.870;4.606;2022-11-20T05:12:39;100480.63;;;4.41;56.31
68822;BME280;55834;50.870;4.606;2022-11-20T05:15:05;100482.38;;;4.39;56.89
68822;BME280;55834;50.870;4.606;2022-11-20T05:17:30;100479.75;;;4.42;57.29
68822;BME280;55834;50.870;4.606;2022-11-20T05:19:55;100475.41;;;4.41;56.22
68822;BME280;55834;50.870;4.606;2022-11-20T05:22:21;100473.66;;;4.43;56.89
68822;BME280;55834;50.870;4.606;2022-11-20T05:24:46;100477.09;;;4.45;57.22
68822;BME280;55834;50.870;4.606;2022-11-20T05:27:11;100485.03;;;4.35;56.00
68822;BME280;55834;50.870;4.606;2022-11-20T05:29:37;100487.75;;;4.16;56.81
68822;BME280;55834;50.870;4.606;2022-11-20T05:32:02;100481.56;;;4.28;58.20
68822;BME280;55834;50.870;4.606;2022-11-20T05:34:27;100480.66;;;4.37;57.23
68822;BME280;55834;50.870;4.606;2022-11-20T05:36:53;100478.00;;;4.44;57.51
68822;BME280;55834;50.870;4.606;2022-11-20T05:39:18;100477.94;;;4.52;57.33
68822;BME280;55834;50.870;4.606;2022-11-20T05:41:43;100481.38;;;4.57;57.50
68822;BME280;55834;50.870;4.606;2022-11-20T05:44:12;100469.16;;;4.61;57.51
68822;BME280;55834;50.870;4.606;2022-11-20T05:46:37;100467.34;;;4.66;57.63
68822;BME280;55834;50.870;4.606;2022-11-20T05:49:03;100455.13;;;4.68;57.46
68822;BME280;55834;50.870;4.606;2022-11-20T05:51:29;100467.31;;;4.69;56.71
68822;BME280;55834;50.870;4.606;2022-11-20T05:53:57;100469.94;;;4.70;57.08
68822;BME280;55834;50.870;4.606;2022-11-20T05:56:23;100455.13;;;4.71;56.82
68822;BME280;55834;50.870;4.606;2022-11-20T05:58:49;100470.81;;;4.72;56.72
68822;BME280;55834;50.870;4.606;2022-11-20T06:01:20;100463.84;;;4.68;56.92
68822;BME280;55834;50.870;4.606;2022-11-20T06:03:47;100456.88;;;4.69;57.49
68822;BME280;55834;50.870;4.606;2022-11-20T06:06:13;100460.38;;;4.69;57.25
68822;BME280;55834;50.870;4.606;2022-11-20T06:08:39;100461.28;;;4.64;57.13
68822;BME280;55834;50.870;4.606;2022-11-20T06:11:06;100467.47;;;4.53;56.93
68822;BME280;55834;50.870;4.606;2022-11-20T06:13:32;100466.63;;;4.50;57.66
68822;BME280;55834;50.870;4.606;2022-11-20T06:15:58;100459.69;;;4.44;57.93
68822;BME280;55834;50.870;4.606;2022-11-20T06:18:26;100457.91;;;4.52;58.26
68822;BME280;55834;50.870;4.606;2022-11-20T06:21:08;100443.88;;;4.60;58.17
68822;BME280;55834;50.870;4.606;2022-11-20T06:23:35;100446.47;;;4.64;57.97
68822;BME280;55834;50.870;4.606;2022-11-20T06:26:05;100429.84;;;4.68;57.61
68822;BME280;55834;50.870;4.606;2022-11-20T06:28:30;100433.34;;;4.70;57.54
68822;BME280;55834;50.870;4.606;2022-11-20T06:30:56;100432.47;;;4.70;57.28
68822;BME280;55834;50.870;4.606;2022-11-20T06:33:22;100432.47;;;4.68;57.06
68822;BME280;55834;50.870;4.606;2022-11-20T06:35:47;100435.28;;;4.45;57.17
68822;BME280;55834;50.870;4.606;2022-11-20T06:38:13;100443.09;;;4.50;58.51
68822;BME280;55834;50.870;4.606;2022-11-20T06:40:42;100442.22;;;4.49;58.04
68822;BME280;55834;50.870;4.606;2022-11-20T06:43:08;100440.41;;;4.54;58.39
68822;BME280;55834;50.870;4.606;2022-11-20T06:45:34;100437.91;;;4.42;57.85
68822;BME280;55834;50.870;4.606;2022-11-20T06:47:59;100442.19;;;4.51;59.10
68822;BME280;55834;50.870;4.606;2022-11-20T06:50:24;100449.25;;;4.44;57.88
68822;BME280;55834;50.870;4.606;2022-11-20T06:52:50;100452.03;;;4.18;58.37
68822;BME280;55834;50.870;4.606;2022-11-20T06:55:15;100444.22;;;4.15;60.98
68822;BME280;55834;50.870;4.606;2022-11-20T06:57:41;100444.97;;;4.31;60.47
68822;BME280;55834;50.870;4.606;2022-11-20T07:00:06;100443.19;;;4.38;59.94
68822;BME280;55834;50.870;4.606;2022-11-20T07:02:32;100444.25;;;4.09;60.36
68822;BME280;55834;50.870;4.606;2022-11-20T07:04:57;100445.03;;;4.23;61.05
68822;BME280;55834;50.870;4.606;2022-11-20T07:07:22;100437.16;;;4.29;60.47
68822;BME280;55834;50.870;4.606;2022-11-20T07:09:48;100438.84;;;4.38;60.86
68822;BME280;55834;50.870;4.606;2022-11-20T07:12:13;100435.19;;;4.54;60.15
68822;BME280;55834;50.870;4.606;2022-11-20T07:14:38;100446.56;;;4.50;58.42
68822;BME280;55834;50.870;4.606;2022-11-20T07:17:04;100449.25;;;4.41;59.35
68822;BME280;55834;50.870;4.606;2022-11-20T07:19:29;100441.34;;;4.52;60.20
68822;BME280;55834;50.870;4.606;2022-11-20T07:21:54;100443.03;;;4.56;59.87
68822;BME280;55834;50.870;4.606;2022-11-20T07:24:19;100444.91;;;4.42;60.04
68822;BME280;55834;50.870;4.606;2022-11-20T07:26:48;100444.81;;;4.52;60.36
68822;BME280;55834;50.870;4.606;2022-11-20T07:29:14;100440.38;;;4.62;60.49
68822;BME280;55834;50.870;4.606;2022-11-20T07:31:40;100449.09;;;4.60;59.07
68822;BME280;55834;50.870;4.606;2022-11-20T07:34:05;100449.00;;;4.72;60.12
68822;BME280;55834;50.870;4.606;2022-11-20T07:36:31;100439.38;;;4.79;59.89
68822;BME280;55834;50.870;4.606;2022-11-20T07:38:56;100444.47;;;4.89;59.58
68822;BME280;55834;50.870;4.606;2022-11-20T07:41:21;100445.31;;;4.96;58.98
68822;BME280;55834;50.870;4.606;2022-11-20T07:43:47;100440.03;;;4.99;58.92
68822;BME280;55834;50.870;4.606;2022-11-20T07:46:12;100436.50;;;5.03;58.86
68822;BME280;55834;50.870;4.606;2022-11-20T07:48:37;100433.84;;;5.06;58.73
68822;BME280;55834;50.870;4.606;2022-11-20T07:51:03;100428.59;;;5.09;58.51
68822;BME280;55834;50.870;4.606;2022-11-20T07:53:28;100427.72;;;5.12;58.66
68822;BME280;55834;50.870;4.606;2022-11-20T07:55:53;100432.94;;;5.12;58.57
68822;BME280;55834;50.870;4.606;2022-11-20T07:58:20;100426.84;;;5.13;58.42
68822;BME280;55834;50.870;4.606;2022-11-20T08:00:45;100420.69;;;5.17;58.50
68822;BME280;55834;50.870;4.606;2022-11-20T08:03:11;100418.03;;;5.20;58.31
68822;BME280;55834;50.870;4.606;2022-11-20T08:05:36;100412.84;;;5.17;58.53
68822;BME280;55834;50.870;4.606;2022-11-20T08:08:02;100408.50;;;5.14;58.79
68822;BME280;55834;50.870;4.606;2022-11-20T08:10:28;100407.59;;;5.15;59.24
68822;BME280;55834;50.870;4.606;2022-11-20T08:12:53;100410.19;;;5.20;59.09
68822;BME280;55834;50.870;4.606;2022-11-20T08:15:39;100415.50;;;5.12;58.69
68822;BME280;55834;50.870;4.606;2022-11-20T08:18:09;100417.25;;;5.13;59.08
68822;BME280;55834;50.870;4.606;2022-11-20T08:20:38;100428.63;;;5.05;59.58
68822;BME280;55834;50.870;4.606;2022-11-20T08:23:05;100425.06;;;5.16;60.18
68822;BME280;55834;50.870;4.606;2022-11-20T08:25:31;100424.06;;;5.28;59.80
68822;BME280;55834;50.870;4.606;2022-11-20T08:28:02;100404.78;;;5.32;59.58
68822;BME280;55834;50.870;4.606;2022-11-20T08:30:28;100399.59;;;5.29;59.59
68822;BME280;55834;50.870;4.606;2022-11-20T08:32:54;100396.91;;;5.35;59.63
68822;BME280;55834;50.870;4.606;2022-11-20T08:35:22;100397.75;;;5.39;59.09
68822;BME280;55834;50.870;4.606;2022-11-20T08:37:48;100397.78;;;5.36;59.54
68822;BME280;55834;50.870;4.606;2022-11-20T08:40:14;100398.53;;;5.46;59.49
68822;BME280;55834;50.870;4.606;2022-11-20T08:42:47;100399.44;;;5.45;59.26
68822;BME280;55834;50.870;4.606;2022-11-20T08:45:13;100392.47;;;5.40;59.46
68822;BME280;55834;50.870;4.606;2022-11-20T08:47:38;100397.88;;;5.27;60.22
68822;BME280;55834;50.870;4.606;2022-11-20T08:50:03;100398.78;;;5.26;59.76
68822;BME280;55834;50.870;4.606;2022-11-20T08:52:29;100387.28;;;5.39;60.64
68822;BME280;55834;50.870;4.606;2022-11-20T08:54:54;100392.41;;;5.47;60.31
68822;BME280;55834;50.870;4.606;2022-11-20T08:57:19;100383.72;;;5.45;59.94
68822;BME280;55834;50.870;4.606;2022-11-20T08:59:45;100385.44;;;5.46;60.40
68822;BME280;55834;50.870;4.606;2022-11-20T09:02:10;100387.94;;;5.55;60.72
68822;BME280;55834;50.870;4.606;2022-11-20T09:04:37;100379.13;;;5.59;60.54
68822;BME280;55834;50.870;4.606;2022-11-20T09:07:02;100379.13;;;5.60;60.34
68822;BME280;55834;50.870;4.606;2022-11-20T09:09:28;100377.41;;;5.59;60.43
68822;BME280;55834;50.870;4.606;2022-11-20T09:11:53;100378.22;;;5.61;60.67
68822;BME280;55834;50.870;4.606;2022-11-20T09:14:19;100373.75;;;5.71;60.36
68822;BME280;55834;50.870;4.606;2022-11-20T09:16:45;100373.75;;;5.70;60.52
68822;BME280;55834;50.870;4.606;2022-11-20T09:19:10;100370.19;;;5.77;60.92
68822;BME280;55834;50.870;4.606;2022-11-20T09:21:36;100366.63;;;5.81;60.44
68822;BME280;55834;50.870;4.606;2022-11-20T09:24:01;100359.66;;;5.78;60.74
68822;BME280;55834;50.870;4.606;2022-11-20T09:26:26;100356.94;;;5.84;61.04
68822;BME280;55834;50.870;4.606;2022-11-20T09:28:52;100346.41;;;5.87;60.85
68822;BME280;55834;50.870;4.606;2022-11-20T09:31:22;100350.75;;;5.90;60.89
68822;BME280;55834;50.870;4.606;2022-11-20T09:33:48;100350.03;;;5.79;60.98
68822;BME280;55834;50.870;4.606;2022-11-20T09:36:13;100339.50;;;5.83;61.47
68822;BME280;55834;50.870;4.606;2022-11-20T09:38:39;100336.84;;;5.88;61.51
68822;BME280;55834;50.870;4.606;2022-11-20T09:41:19;100333.16;;;5.98;61.43
68822;BME280;55834;50.870;4.606;2022-11-20T09:46:29;100322.63;;;6.01;61.15
68822;BME280;55834;50.870;4.606;2022-11-20T09:54:22;100309.09;;;6.27;60.79
68822;BME280;55834;50.870;4.606;2022-11-20T09:56:56;100315.97;;;6.33;60.81
68822;BME280;55834;50.870;4.606;2022-11-20T09:59:40;100312.38;;;6.39;60.97
68822;BME280;55834;50.870;4.606;2022-11-20T10:02:37;100305.38;;;6.41;60.68
68822;BME280;55834;50.870;4.606;2022-11-20T10:05:21;100300.91;;;6.44;60.89
68822;BME280;55834;50.870;4.606;2022-11-20T10:07:52;100306.09;;;6.49;61.12
68822;BME280;55834;50.870;4.606;2022-11-20T10:17:16;100294.59;;;6.56;61.07
68822;BME280;55834;50.870;4.606;2022-11-20T10:32:38;100262.66;;;6.81;62.47
68822;BME280;55834;50.870;4.606;2022-11-20T10:35:14;100256.31;;;6.92;61.95
68822;BME280;55834;50.870;4.606;2022-11-20T10:37:43;100234.25;;;7.01;61.61
68822;BME280;55834;50.870;4.606;2022-11-20T10:40:40;100234.06;;;7.09;61.42
68822;BME280;55834;50.870;4.606;2022-11-20T10:43:14;100235.59;;;7.19;60.69
68822;BME280;55834;50.870;4.606;2022-11-20T10:45:46;100235.53;;;7.22;61.10
68822;BME280;55834;50.870;4.606;2022-11-20T10:48:25;100236.41;;;7.21;60.60
68822;BME280;55834;50.870;4.606;2022-11-20T10:53:57;100215.31;;;7.26;61.90
68822;BME280;55834;50.870;4.606;2022-11-20T10:57:06;100207.28;;;7.32;61.50
68822;BME280;55834;50.870;4.606;2022-11-20T10:59:59;100210.56;;;7.04;61.39
68822;BME280;55834;50.870;4.606;2022-11-20T11:02:31;100213.06;;;7.09;62.22
68822;BME280;55834;50.870;4.606;2022-11-20T11:04:58;100206.81;;;6.74;63.65
68822;BME280;55834;50.870;4.606;2022-11-20T11:07:34;100199.44;;;6.91;63.31
68822;BME280;55834;50.870;4.606;2022-11-20T11:10:19;100207.66;;;6.74;64.16
68822;BME280;55834;50.870;4.606;2022-11-20T11:12:46;100203.59;;;7.01;63.37
68822;BME280;55834;50.870;4.606;2022-11-20T11:15:40;100202.59;;;7.07;62.31
68822;BME280;55834;50.870;4.606;2022-11-20T11:18:10;100201.53;;;6.75;62.69
68822;BME280;55834;50.870;4.606;2022-11-20T11:20:36;100192.03;;;6.70;63.31
68822;BME280;55834;50.870;4.606;2022-11-20T11:23:02;100189.81;;;6.48;62.84
68822;BME280;55834;50.870;4.606;2022-11-20T11:25:35;100190.72;;;6.91;62.66
68822;BME280;55834;50.870;4.606;2022-11-20T11:28:03;100179.56;;;7.20;61.67
68822;BME280;55834;50.870;4.606;2022-11-20T11:30:40;100183.00;;;7.22;62.34
68822;BME280;55834;50.870;4.606;2022-11-20T11:33:09;100174.63;;;6.66;62.55
68822;BME280;55834;50.870;4.606;2022-11-20T11:35:45;100161.53;;;6.64;62.63
68822;BME280;55834;50.870;4.606;2022-11-20T11:38:15;100163.91;;;5.88;64.20
68822;BME280;55834;50.870;4.606;2022-11-20T11:40:41;100161.09;;;6.44;63.05
68822;BME280;55834;50.870;4.606;2022-11-20T11:43:17;100150.13;;;6.67;62.52
68822;BME280;55834;50.870;4.606;2022-11-20T11:46:02;100140.69;;;6.58;61.86
68822;BME280;55834;50.870;4.606;2022-11-20T11:48:27;100138.13;;;6.55;62.03
68822;BME280;55834;50.870;4.606;2022-11-20T11:50:52;100142.22;;;6.26;62.52
68822;BME280;55834;50.870;4.606;2022-11-20T11:53:21;100129.56;;;6.45;62.56
68822;BME280;55834;50.870;4.606;2022-11-20T11:56:09;100128.19;;;6.71;63.28
68822;BME280;55834;50.870;4.606;2022-11-20T11:58:51;100118.28;;;5.98;63.99
68822;BME280;55834;50.870;4.606;2022-11-20T12:01:32;100123.56;;;5.49;65.10
68822;BME280;55834;50.870;4.606;2022-11-20T12:04:05;100106.88;;;6.01;64.04
68822;BME280;55834;50.870;4.606;2022-11-20T12:06:39;100100.47;;;6.17;63.25
68822;BME280;55834;50.870;4.606;2022-11-20T12:09:11;100095.78;;;6.31;63.15
68822;BME280;55834;50.870;4.606;2022-11-20T12:11:54;100086.88;;;6.39;63.70
68822;BME280;55834;50.870;4.606;2022-11-20T12:14:33;100088.44;;;6.47;63.39
68822;BME280;55834;50.870;4.606;2022-11-20T12:17:00;100077.47;;;5.88;63.82
68822;BME280;55834;50.870;4.606;2022-11-20T12:19:29;100086.63;;;5.64;65.44
68822;BME280;55834;50.870;4.606;2022-11-20T12:25:08;100075.31;;;6.07;64.15
68822;BME280;55834;50.870;4.606;2022-11-20T12:30:41;100073.41;;;6.15;63.02
68822;BME280;55834;50.870;4.606;2022-11-20T12:33:43;100059.88;;;6.35;64.05
68822;BME280;55834;50.870;4.606;2022-11-20T12:39:14;100058.38;;;6.64;62.83
68822;BME280;55834;50.870;4.606;2022-11-20T12:41:57;100049.13;;;6.47;63.08
68822;BME280;55834;50.870;4.606;2022-11-20T13:00:15;100006.25;;;6.48;63.07
68822;BME280;55834;50.870;4.606;2022-11-20T13:05:34;99988.22;;;6.73;63.12
68822;BME280;55834;50.870;4.606;2022-11-20T13:08:02;99975.09;;;7.08;62.89
68822;BME280;55834;50.870;4.606;2022-11-20T13:10:36;99975.13;;;7.06;61.26
68822;BME280;55834;50.870;4.606;2022-11-20T13:13:16;99969.88;;;6.34;63.11
68822;BME280;55834;50.870;4.606;2022-11-20T13:18:22;99960.97;;;6.77;63.91
68822;BME280;55834;50.870;4.606;2022-11-20T13:20:47;99960.97;;;6.42;63.70
68822;BME280;55834;50.870;4.606;2022-11-20T13:23:27;99960.66;;;6.17;64.59
68822;BME280;55834;50.870;4.606;2022-11-20T13:26:17;99942.72;;;5.98;65.94
68822;BME280;55834;50.870;4.606;2022-11-20T13:28:45;99940.75;;;6.08;65.87
68822;BME280;55834;50.870;4.606;2022-11-20T13:31:29;99940.44;;;6.23;66.36
68822;BME280;55834;50.870;4.606;2022-11-20T13:33:55;99927.00;;;6.00;66.78
68822;BME280;55834;50.870;4.606;2022-11-20T13:36:24;99931.88;;;5.75;66.75
68822;BME280;55834;50.870;4.606;2022-11-20T13:38:52;99920.31;;;6.24;65.81
68822;BME280;55834;50.870;4.606;2022-11-20T13:41:33;99916.44;;;6.40;65.07
68822;BME280;55834;50.870;4.606;2022-11-20T13:44:21;99912.66;;;6.15;65.46
68822;BME280;55834;50.870;4.606;2022-11-20T13:46:48;99912.28;;;6.31;65.51
68822;BME280;55834;50.870;4.606;2022-11-20T13:49:27;99901.94;;;5.86;66.84
68822;BME280;55834;50.870;4.606;2022-11-20T14:00:28;99870.06;;;6.06;67.46
68822;BME280;55834;50.870;4.606;2022-11-20T14:05:36;99878.94;;;5.99;67.19
68822;BME280;55834;50.870;4.606;2022-11-20T14:08:06;99865.13;;;6.28;66.86
68822;BME280;55834;50.870;4.606;2022-11-20T14:10:37;99873.28;;;5.79;67.47
68822;BME280;55834;50.870;4.606;2022-11-20T14:13:15;99867.59;;;5.99;67.58
68822;BME280;55834;50.870;4.606;2022-11-20T14:15:40;99868.69;;;5.51;68.32
68822;BME280;55834;50.870;4.606;2022-11-20T14:18:41;99870.59;;;5.41;68.91
68822;BME280;55834;50.870;4.606;2022-11-20T14:21:02;99844.69;;;6.07;67.20
68822;BME280;55834;50.870;4.606;2022-11-20T14:23:29;99849.50;;;5.51;68.07